Time;durP1;ratioP1;P1;durP2;ratioP2;P2;SDS_P1;SDS_P2;PMS_P1;PMS_P2;Temp;Humidity;BMP_temperature;BMP_pressure;BME280_temperature;BME280_humidity;BME280_pressure;Samples;Min_cycle;Max_cycle;Signal;HPM_P1;HPM_P2
2023/02/22 00:01:34;;;;;;;77.45;42.80;;;8.50;98.40;;;;;;4975009;28;20038;-72
2023/02/22 00:04:04;;;;;;;67.07;41.70;;;8.40;99.10;;;;;;4974451;28;20057;-72
2023/02/22 00:06:32;;;;;;;80.63;44.67;;;8.40;98.90;;;;;;4958050;28;20446;-71
2023/02/22 00:09:01;;;;;;;72.53;45.15;;;8.10;99.90;;;;;;4941799;28;20038;-72
2023/02/22 00:11:30;;;;;;;65.28;37.88;;;8.00;99.90;;;;;;4975121;28;20050;-73
2023/02/22 00:13:57;;;;;;;63.72;38.13;;;8.20;99.30;;;;;;4973969;28;20038;-72
2023/02/22 00:16:25;;;;;;;54.58;33.40;;;8.30;99.00;;;;;;4957882;28;20689;-71
2023/02/22 00:18:54;;;;;;;57.45;35.25;;;8.00;98.80;;;;;;4957604;28;20074;-72
2023/02/22 00:21:21;;;;;;;58.55;33.60;;;8.00;99.90;;;;;;4971670;28;20042;-72
2023/02/22 00:23:49;;;;;;;58.60;32.22;;;8.00;99.90;;;;;;4956903;28;20399;-70
2023/02/22 00:26:19;;;;;;;53.28;31.45;;;7.90;99.60;;;;;;4974636;28;20057;-71
2023/02/22 00:28:51;;;;;;;52.78;33.30;;;7.90;99.60;;;;;;4974694;28;20115;-70
2023/02/22 00:31:19;;;;;;;60.53;34.35;;;7.60;99.90;;;;;;4956884;28;20054;-71
2023/02/22 00:33:47;;;;;;;58.90;36.30;;;7.60;99.90;;;;;;4957226;28;20093;-69
2023/02/22 00:36:14;;;;;;;65.05;36.45;;;7.80;99.90;;;;;;4974340;28;20082;-71
2023/02/22 00:38:42;;;;;;;57.65;38.63;;;7.80;99.90;;;;;;4974113;28;20039;-70
2023/02/22 00:41:10;;;;;;;62.70;38.17;;;7.60;99.90;;;;;;4980952;23;20053;-68
2023/02/22 00:43:38;;;;;;;70.07;39.83;;;7.70;99.90;;;;;;4944174;28;20050;-69
2023/02/22 00:46:05;;;;;;;61.38;38.65;;;7.70;99.90;;;;;;4974269;28;20466;-70
2023/02/22 00:48:32;;;;;;;66.45;39.75;;;7.30;99.90;;;;;;4956309;28;20102;-69
2023/02/22 00:51:01;;;;;;;65.43;38.65;;;7.40;99.90;;;;;;4957307;28;20054;-69
2023/02/22 00:53:28;;;;;;;63.25;38.28;;;7.60;99.90;;;;;;4956367;28;20054;-70
2023/02/22 00:55:55;;;;;;;63.35;40.38;;;7.70;99.90;;;;;;4956980;28;20039;-70
2023/02/22 00:58:23;;;;;;;69.22;41.78;;;7.50;99.90;;;;;;4956720;28;20057;-70
2023/02/22 01:00:50;;;;;;;71.90;41.75;;;7.40;99.90;;;;;;4954061;28;20050;-70
2023/02/22 01:03:19;;;;;;;59.70;35.83;;;7.40;99.90;;;;;;4963748;28;20102;-73
2023/02/22 01:05:47;;;;;;;66.57;35.17;;;7.60;99.90;;;;;;4956572;28;20034;-71
2023/02/22 01:08:15;;;;;;;63.70;39.17;;;7.40;99.90;;;;;;4956708;28;20081;-70
2023/02/22 01:10:44;;;;;;;67.30;38.40;;;7.40;99.90;;;;;;4973686;28;20043;-71
2023/02/22 01:13:12;;;;;;;58.50;34.75;;;7.40;99.90;;;;;;4956540;28;20509;-71
2023/02/22 01:15:43;;;;;;;57.60;35.33;;;7.00;99.90;;;;;;4973437;28;20046;-71
2023/02/22 01:18:11;;;;;;;48.13;30.48;;;7.10;99.90;;;;;;4973669;28;20098;-69
2023/02/22 01:20:39;;;;;;;42.47;27.80;;;7.00;99.90;;;;;;4944333;28;20514;-68
2023/02/22 01:23:07;;;;;;;44.88;26.45;;;6.90;99.90;;;;;;4972359;28;20046;-69
2023/02/22 01:25:35;;;;;;;43.78;26.52;;;7.20;99.90;;;;;;4956555;28;20049;-71
2023/02/22 01:28:05;;;;;;;55.03;31.75;;;7.50;99.90;;;;;;4956154;28;20047;-69
2023/02/22 01:30:34;;;;;;;59.38;33.60;;;7.50;99.90;;;;;;4973403;28;20065;-70
2023/02/22 01:33:04;;;;;;;57.90;32.58;;;7.50;99.90;;;;;;4973276;28;20038;-69
2023/02/22 01:35:34;;;;;;;48.95;29.75;;;7.30;99.90;;;;;;4956095;28;20784;-71
2023/02/22 01:38:02;;;;;;;47.97;28.48;;;6.80;99.90;;;;;;4973374;28;20490;-70
2023/02/22 01:40:33;;;;;;;48.47;29.63;;;6.40;99.90;;;;;;4973250;28;20627;-70
2023/02/22 01:43:04;;;;;;;52.10;29.92;;;6.70;99.90;;;;;;4956186;28;20066;-69
2023/02/22 01:45:32;;;;;;;47.92;31.30;;;7.10;99.90;;;;;;4973085;28;20034;-70
2023/02/22 01:47:59;;;;;;;55.88;32.70;;;7.20;99.90;;;;;;4971603;28;20411;-71
2023/02/22 01:50:27;;;;;;;52.55;31.27;;;7.00;99.90;;;;;;4955594;28;20465;-69
2023/02/22 02:12:57;;;;;;;51.50;30.00;;;7.00;99.90;;;;;;4971716;28;20077;-70
2023/02/22 02:15:31;;;;;;;47.90;29.60;;;7.00;99.90;;;;;;4955242;28;20045;-69
2023/02/22 02:18:05;;;;;;;52.28;31.10;;;7.10;99.90;;;;;;4955044;28;20046;-69
2023/02/22 02:20:57;;;;;;;52.13;30.45;;;6.90;99.90;;;;;;4936751;29;20054;-69
2023/02/22 02:23:53;;;;;;;56.92;30.13;;;6.80;99.90;;;;;;4968981;28;20131;-69
2023/02/22 02:26:33;;;;;;;50.78;32.10;;;6.80;99.90;;;;;;4939134;28;20402;-69
2023/02/22 02:29:30;;;;;;;53.35;32.03;;;6.90;99.90;;;;;;4972640;28;20058;-70
2023/02/22 02:32:03;;;;;;;50.30;29.60;;;6.80;99.90;;;;;;4942807;28;20035;-71
2023/02/22 02:34:39;;;;;;;55.85;31.25;;;6.80;99.90;;;;;;4954461;28;20050;-71
2023/02/22 02:37:09;;;;;;;48.17;30.75;;;6.70;99.90;;;;;;4955376;28;20038;-70
2023/02/22 02:39:57;;;;;;;57.50;32.25;;;6.80;99.90;;;;;;4972019;28;20058;-70
2023/02/22 02:42:32;;;;;;;52.95;30.30;;;6.70;99.90;;;;;;4971934;28;20086;-70
2023/02/22 02:45:08;;;;;;;54.83;29.92;;;6.60;99.90;;;;;;4943949;28;20047;-70
2023/02/22 02:47:45;;;;;;;51.05;31.70;;;6.70;99.90;;;;;;4954695;28;20054;-71
2023/02/22 02:50:22;;;;;;;55.92;30.40;;;6.60;99.90;;;;;;4951624;28;20414;-69
2023/02/22 02:52:53;;;;;;;50.30;30.58;;;6.60;99.90;;;;;;4971532;28;20046;-69
2023/02/22 02:55:20;;;;;;;;;;;6.60;99.90;;;;;;4955416;28;20042;-70
2023/02/22 02:57:47;;;;;;;46.95;29.58;;;6.60;99.90;;;;;;4954522;28;19922;-71
2023/02/22 03:00:22;;;;;;;45.50;30.77;;;6.50;99.90;;;;;;4972062;28;20133;-71
2023/02/22 03:03:09;;;;;;;52.85;30.85;;;6.30;99.90;;;;;;4958865;28;20043;-70
2023/02/22 03:06:07;;;;;;;50.78;29.63;;;6.40;99.90;;;;;;4972166;28;20050;-70
2023/02/22 03:08:57;;;;;;;45.92;27.58;;;6.30;99.90;;;;;;4971682;28;20066;-71
2023/02/22 03:11:30;;;;;;;46.95;27.35;;;6.20;99.90;;;;;;4914767;28;20410;-70
2023/02/22 03:14:23;;;;;;;45.50;28.98;;;6.30;99.90;;;;;;4978088;28;20050;-70
2023/02/22 03:17:04;;;;;;;50.08;29.20;;;6.50;99.90;;;;;;4953341;28;20050;-70
2023/02/22 03:19:51;;;;;;;43.17;28.38;;;6.40;99.90;;;;;;4972100;28;20043;-70
2023/02/22 03:22:42;;;;;;;47.05;29.60;;;6.10;99.90;;;;;;4961605;28;20094;-70
2023/02/22 03:25:18;;;;;;;46.65;27.08;;;6.10;99.90;;;;;;4975831;28;20476;-70
2023/02/22 03:27:53;;;;;;;52.28;28.70;;;6.40;99.90;;;;;;4961089;28;20410;-70
2023/02/22 03:30:32;;;;;;;41.15;26.50;;;6.10;99.90;;;;;;4978215;28;20043;-70
2023/02/22 03:33:07;;;;;;;48.08;27.88;;;6.20;99.90;;;;;;4978383;28;20053;-71
2023/02/22 03:35:41;;;;;;;42.92;26.92;;;6.10;99.90;;;;;;4961153;28;20046;-70
2023/02/22 03:38:13;;;;;;;40.58;25.05;;;6.20;99.90;;;;;;4960823;28;20053;-70
2023/02/22 03:40:44;;;;;;;36.28;22.35;;;6.30;99.90;;;;;;4977647;28;20066;-69
2023/02/22 03:43:24;;;;;;;39.63;22.42;;;6.30;99.90;;;;;;4960787;28;20051;-70
2023/02/22 03:45:53;;;;;;;30.58;20.75;;;6.10;99.90;;;;;;4960791;28;20395;-70
2023/02/22 03:48:26;;;;;;;32.92;21.13;;;5.90;99.90;;;;;;4977757;28;20491;-70
2023/02/22 03:50:53;;;;;;;32.25;21.10;;;5.60;99.90;;;;;;4967772;28;20046;-70
2023/02/22 03:53:22;;;;;;;44.83;21.02;;;5.40;99.90;;;;;;4974455;28;20043;-70
2023/02/22 03:55:51;;;;;;;33.53;19.92;;;5.30;99.90;;;;;;4978343;28;20390;-70
2023/02/22 03:58:21;;;;;;;32.65;20.83;;;5.20;99.90;;;;;;4977751;28;20039;-69
2023/02/22 04:00:51;;;;;;;;;;;5.20;99.90;;;;;;4959113;28;20050;-70
2023/02/22 04:03:20;;;;;;;29.15;19.40;;;5.00;99.90;;;;;;4950605;28;19929;-71
2023/02/22 04:05:48;;;;;;;30.88;19.45;;;5.20;99.90;;;;;;4977767;28;20393;-70
2023/02/22 04:08:16;;;;;;;29.70;20.38;;;5.40;99.90;;;;;;4960407;28;20059;-70
2023/02/22 04:10:43;;;;;;;28.85;19.60;;;5.50;99.90;;;;;;4960892;28;20039;-69
2023/02/22 04:13:13;;;;;;;29.85;18.52;;;5.50;99.90;;;;;;4960775;28;20063;-71
2023/02/22 04:15:41;;;;;;;35.08;20.92;;;5.50;99.90;;;;;;4960534;28;20042;-71
2023/02/22 04:18:08;;;;;;;32.28;19.65;;;5.60;99.90;;;;;;4978005;28;20038;-71
2023/02/22 04:20:36;;;;;;;32.15;20.35;;;5.40;99.90;;;;;;4977803;28;20049;-70
2023/02/22 04:23:03;;;;;;;37.55;19.00;;;5.40;99.90;;;;;;4973486;28;20039;-70
2023/02/22 04:25:30;;;;;;;31.77;21.55;;;5.50;99.90;;;;;;4975191;28;20057;-70
2023/02/22 04:27:58;;;;;;;31.08;20.63;;;5.50;99.90;;;;;;4957501;28;20047;-70
2023/02/22 04:30:27;;;;;;;31.70;18.83;;;5.50;99.90;;;;;;4975011;28;20045;-69
2023/02/22 04:32:55;;;;;;;30.63;18.42;;;5.50;99.90;;;;;;4956877;28;20133;-70
2023/02/22 04:35:22;;;;;;;30.50;19.73;;;5.60;99.90;;;;;;4957563;28;20059;-70
2023/02/22 04:37:49;;;;;;;32.65;20.70;;;5.60;99.90;;;;;;4974538;28;20050;-70
2023/02/22 04:40:17;;;;;;;31.60;20.05;;;5.40;99.90;;;;;;4957074;28;20065;-69
2023/02/22 04:42:44;;;;;;;29.42;20.88;;;5.40;99.90;;;;;;4957632;28;20047;-69
2023/02/22 04:45:12;;;;;;;33.22;20.23;;;5.60;99.90;;;;;;4974106;28;20191;-70
2023/02/22 04:47:39;;;;;;;27.27;19.02;;;5.60;99.90;;;;;;4957588;28;20398;-71
2023/02/22 04:50:09;;;;;;;31.25;19.63;;;5.70;99.90;;;;;;4974193;28;20046;-70
2023/02/22 04:52:37;;;;;;;32.33;20.75;;;5.70;99.90;;;;;;4974380;28;20363;-71
2023/02/22 04:55:05;;;;;;;35.15;20.48;;;5.60;99.90;;;;;;4974511;28;20406;-69
2023/02/22 04:57:32;;;;;;;29.75;20.08;;;5.50;99.90;;;;;;4946126;29;20050;-69
2023/02/22 05:00:00;;;;;;;33.35;20.35;;;5.60;99.90;;;;;;4972642;28;20130;-71
2023/02/22 05:02:28;;;;;;;35.95;21.02;;;5.50;99.90;;;;;;4961259;28;20054;-71
2023/02/22 05:04:55;;;;;;;34.92;21.83;;;5.40;99.90;;;;;;4956895;28;20043;-70
2023/02/22 05:07:22;;;;;;;38.13;21.50;;;5.30;99.90;;;;;;4956626;28;20066;-70
2023/02/22 05:09:50;;;;;;;36.55;21.88;;;5.20;99.90;;;;;;4973680;28;20482;-69
2023/02/22 05:12:17;;;;;;;30.08;23.00;;;5.30;99.90;;;;;;4970448;28;20039;-69
2023/02/22 05:14:44;;;;;;;36.75;21.63;;;5.30;99.90;;;;;;4947995;28;20046;-70
2023/02/22 05:17:12;;;;;;;37.97;21.73;;;5.30;99.90;;;;;;4973799;28;20077;-69
2023/02/22 05:19:40;;;;;;;34.22;22.80;;;5.20;99.90;;;;;;4937100;29;20093;-70
2023/02/22 05:22:08;;;;;;;38.25;23.50;;;5.30;99.90;;;;;;4955474;28;20042;-70
2023/02/22 05:24:36;;;;;;;39.10;23.05;;;5.40;99.90;;;;;;4971813;28;20042;-70
2023/02/22 05:27:03;;;;;;;36.83;22.30;;;5.50;99.90;;;;;;4973422;28;20034;-70
2023/02/22 05:29:31;;;;;;;34.78;21.73;;;5.40;99.90;;;;;;4956352;28;20054;-71
2023/02/22 05:31:58;;;;;;;39.05;21.85;;;5.50;99.90;;;;;;4955247;28;20046;-71
2023/02/22 05:34:28;;;;;;;36.13;22.65;;;5.50;99.90;;;;;;4954511;28;20051;-70
2023/02/22 05:36:55;;;;;;;31.13;21.60;;;5.70;99.90;;;;;;4939066;28;20061;-69
2023/02/22 05:39:23;;;;;;;40.80;22.38;;;5.50;99.90;;;;;;4955169;28;20043;-71
2023/02/22 05:41:50;;;;;;;39.17;24.10;;;5.50;99.90;;;;;;4971992;28;20057;-69
2023/02/22 05:44:17;;;;;;;38.15;21.20;;;5.70;99.90;;;;;;4972697;28;20425;-69
2023/02/22 05:46:45;;;;;;;39.97;22.70;;;5.70;99.90;;;;;;4955740;28;20427;-69
2023/02/22 05:49:12;;;;;;;35.00;23.42;;;5.60;99.90;;;;;;4972472;28;20105;-70
2023/02/22 05:51:39;;;;;;;36.45;21.45;;;5.40;99.90;;;;;;4939357;28;20046;-69
2023/02/22 05:54:07;;;;;;;33.20;22.02;;;5.50;99.90;;;;;;4967479;28;20102;-69
2023/02/22 05:56:35;;;;;;;32.47;22.17;;;5.30;99.90;;;;;;4955282;28;20051;-69
2023/02/22 05:59:02;;;;;;;33.67;21.17;;;5.00;99.90;;;;;;4972364;28;20097;-70
2023/02/22 06:01:30;;;;;;;34.78;20.65;;;5.30;99.90;;;;;;4968891;28;20031;-70
2023/02/22 06:03:57;;;;;;;34.25;21.58;;;5.40;99.90;;;;;;4946827;28;20102;-69
2023/02/22 06:06:24;;;;;;;28.25;18.42;;;5.40;99.90;;;;;;4970556;28;20039;-69
2023/02/22 06:08:52;;;;;;;26.35;17.98;;;5.20;99.90;;;;;;4943472;28;20059;-68
2023/02/22 06:11:19;;;;;;;28.50;18.52;;;5.20;99.90;;;;;;4955138;28;20027;-69
2023/02/22 06:13:51;;;;;;;25.50;18.67;;;5.20;99.90;;;;;;4939716;28;20072;-69
2023/02/22 06:16:21;;;;;;;30.10;18.80;;;5.30;99.90;;;;;;4971752;28;20113;-71
2023/02/22 06:18:49;;;;;;;59.08;35.63;;;5.40;99.90;;;;;;4972488;28;20053;-70
2023/02/22 06:21:16;;;;;;;67.68;37.70;;;5.60;99.90;;;;;;4967298;28;20094;-70
2023/02/22 06:23:44;;;;;;;36.33;23.42;;;5.60;99.90;;;;;;4971566;28;20046;-68
2023/02/22 06:26:18;;;;;;;122.28;65.63;;;5.40;99.90;;;;;;4952878;28;20054;-69
2023/02/22 06:28:46;;;;;;;70.43;40.08;;;5.40;99.90;;;;;;4966034;28;20038;-70
2023/02/22 06:31:13;;;;;;;42.05;26.95;;;5.30;99.90;;;;;;4952474;28;20046;-71
2023/02/22 06:33:41;;;;;;;40.55;25.20;;;5.30;99.90;;;;;;4952816;28;20129;-70
2023/02/22 06:36:09;;;;;;;40.70;25.63;;;5.10;99.90;;;;;;4970648;28;20050;-71
2023/02/22 06:38:36;;;;;;;41.80;25.00;;;5.10;99.90;;;;;;4969737;28;20050;-70
2023/02/22 06:41:04;;;;;;;35.03;22.70;;;5.50;99.90;;;;;;4952244;28;20055;-70
2023/02/22 06:43:31;;;;;;;37.28;21.90;;;5.90;99.90;;;;;;4972017;28;20039;-72
2023/02/22 06:45:58;;;;;;;37.58;21.55;;;6.00;99.90;;;;;;4954225;28;20043;-70
2023/02/22 06:48:26;;;;;;;34.92;21.40;;;6.20;99.90;;;;;;4955090;28;20042;-70
2023/02/22 06:50:53;;;;;;;34.38;21.15;;;6.40;99.90;;;;;;4955158;28;20446;-70
2023/02/22 06:53:20;;;;;;;39.47;22.65;;;6.40;99.90;;;;;;4938603;28;20049;-69
2023/02/22 06:55:48;;;;;;;35.00;22.17;;;6.60;99.90;;;;;;4955356;28;20057;-70
2023/02/22 06:58:16;;;;;;;33.88;21.30;;;6.70;99.90;;;;;;4972235;28;20038;-73
2023/02/22 07:00:43;;;;;;;37.88;20.75;;;6.80;99.90;;;;;;4970671;28;20062;-71
2023/02/22 07:03:11;;;;;;;31.13;20.70;;;6.80;99.90;;;;;;4961025;28;20066;-71
2023/02/22 07:05:40;;;;;;;36.83;22.58;;;6.80;99.90;;;;;;4955051;28;20145;-70
2023/02/22 07:08:07;;;;;;;37.75;21.67;;;6.90;99.90;;;;;;4971467;28;20050;-70
2023/02/22 07:10:36;;;;;;;39.13;23.35;;;6.90;99.90;;;;;;4954716;28;20042;-70
2023/02/22 07:13:04;;;;;;;40.25;24.48;;;6.90;99.90;;;;;;4954296;28;20053;-71
2023/02/22 07:15:34;;;;;;;42.78;25.17;;;7.00;99.90;;;;;;4971651;28;20043;-71
2023/02/22 07:18:01;;;;;;;39.75;23.38;;;7.10;99.90;;;;;;4954791;28;20062;-72
2023/02/22 07:20:30;;;;;;;44.65;24.00;;;7.30;99.90;;;;;;4971788;28;20039;-70
2023/02/22 07:22:58;;;;;;;42.35;23.67;;;7.30;99.90;;;;;;4971988;28;20101;-72
2023/02/22 07:25:26;;;;;;;41.45;23.83;;;7.40;99.90;;;;;;4954839;28;20469;-70
2023/02/22 07:27:53;;;;;;;43.17;22.80;;;7.40;99.90;;;;;;4971363;28;20047;-70
2023/02/22 07:30:29;;;;;;;39.17;22.25;;;7.50;99.90;;;;;;4960583;28;20039;-71
2023/02/22 07:32:59;;;;;;;39.67;21.67;;;7.40;99.90;;;;;;4971418;28;20123;-70
2023/02/22 07:35:38;;;;;;;39.90;21.08;;;7.50;99.90;;;;;;4971674;28;20034;-70
2023/02/22 07:38:09;;;;;;;29.92;21.00;;;7.60;99.90;;;;;;4962198;28;20040;-69
2023/02/22 07:40:37;;;;;;;33.90;20.92;;;7.60;99.90;;;;;;4948995;28;20067;-71
2023/02/22 07:43:30;;;;;;;32.00;21.90;;;7.90;99.90;;;;;;4951422;29;20054;-71
2023/02/22 07:46:01;;;;;;;33.58;21.45;;;7.70;99.90;;;;;;4952131;29;20043;-71
2023/02/22 07:48:36;;;;;;;32.50;21.50;;;7.90;99.90;;;;;;4952123;28;20036;-71
2023/02/22 07:51:04;;;;;;;31.70;20.95;;;8.20;99.90;;;;;;4952453;28;20039;-71
2023/02/22 07:53:32;;;;;;;32.10;20.15;;;8.50;99.90;;;;;;4951087;29;20083;-71
2023/02/22 07:56:01;;;;;;;35.38;22.73;;;8.80;99.90;;;;;;4932004;29;20122;-71
2023/02/22 07:58:30;;;;;;;36.45;22.88;;;8.80;99.90;;;;;;4948989;28;20058;-71
2023/02/22 08:01:00;;;;;;;34.20;22.35;;;8.70;99.90;;;;;;4947431;28;20051;-71
2023/02/22 08:03:29;;;;;;;;;;;9.00;99.90;;;;;;4956547;29;20132;-71
2023/02/22 08:05:59;;;;;;;32.10;21.58;;;9.20;99.90;;;;;;4955277;29;19949;-70
2023/02/22 08:08:26;;;;;;;37.25;23.92;;;9.20;99.90;;;;;;4955720;29;20047;-72
2023/02/22 08:10:54;;;;;;;35.95;24.00;;;9.30;99.50;;;;;;4955558;28;20035;-74
2023/02/22 08:13:22;;;;;;;38.60;24.55;;;9.50;99.70;;;;;;4939057;29;20058;-71
2023/02/22 08:15:52;;;;;;;44.40;25.73;;;9.50;99.00;;;;;;4954162;29;20047;-72
2023/02/22 08:18:20;;;;;;;42.38;27.10;;;9.40;99.90;;;;;;4955719;29;20473;-70
2023/02/22 08:20:52;;;;;;;42.95;27.02;;;9.60;99.70;;;;;;4938627;29;20047;-70
2023/02/22 08:23:22;;;;;;;42.45;27.00;;;9.60;99.50;;;;;;4954128;29;20047;-71
2023/02/22 08:25:49;;;;;;;38.30;27.37;;;9.80;99.30;;;;;;4955673;29;20395;-70
2023/02/22 08:28:21;;;;;;;42.65;27.55;;;9.70;98.50;;;;;;4953943;29;20285;-71
2023/02/22 08:30:53;;;;;;;39.08;25.70;;;9.80;98.50;;;;;;4939532;29;20050;-72
2023/02/22 08:33:21;;;;;;;37.95;26.45;;;9.80;98.20;;;;;;4954298;29;20407;-71
2023/02/22 08:35:49;;;;;;;38.53;24.50;;;10.00;98.10;;;;;;4954902;29;20055;-71
2023/02/22 08:38:23;;;;;;;42.10;24.48;;;10.00;98.00;;;;;;4955210;29;20039;-70
2023/02/22 08:40:51;;;;;;;40.90;24.10;;;10.20;97.60;;;;;;4961506;28;20058;-72
2023/02/22 08:43:19;;;;;;;35.72;23.73;;;10.30;97.20;;;;;;4922493;28;20043;-69
2023/02/22 08:45:46;;;;;;;34.58;22.65;;;10.40;97.00;;;;;;4966757;28;20126;-70
2023/02/22 08:48:15;;;;;;;42.33;24.90;;;10.40;96.70;;;;;;4962455;28;20454;-71
2023/02/22 08:50:43;;;;;;;41.40;23.85;;;10.50;96.70;;;;;;4965954;28;20054;-71
2023/02/22 08:53:12;;;;;;;40.00;23.35;;;10.60;96.60;;;;;;4961550;28;20047;-71
2023/02/22 08:55:40;;;;;;;33.90;22.80;;;10.80;96.40;;;;;;4961914;28;20459;-70
2023/02/22 08:58:09;;;;;;;35.35;25.80;;;10.70;95.70;;;;;;4964457;28;20446;-70
2023/02/22 09:00:38;;;;;;;35.40;23.33;;;10.80;95.80;;;;;;4957429;28;20043;-71
2023/02/22 09:03:08;;;;;;;41.10;22.25;;;10.90;95.10;;;;;;4942916;28;20066;-72
2023/02/22 09:05:36;;;;;;;37.17;22.77;;;11.00;95.10;;;;;;4937789;28;20062;-70
2023/02/22 09:08:04;;;;;;;29.20;21.35;;;11.20;94.50;;;;;;4954420;28;20047;-73
2023/02/22 09:10:33;;;;;;;36.42;21.30;;;11.10;94.00;;;;;;4954739;28;20431;-70
2023/02/22 09:13:01;;;;;;;33.25;21.05;;;11.30;93.80;;;;;;4954551;28;20057;-70
2023/02/22 09:15:28;;;;;;;32.42;21.20;;;11.50;93.20;;;;;;4954582;28;20046;-70
2023/02/22 09:17:56;;;;;;;32.60;19.85;;;11.60;92.70;;;;;;4954641;29;20035;-73
2023/02/22 09:20:23;;;;;;;31.05;20.92;;;11.70;92.40;;;;;;4954494;28;20043;-71
2023/02/22 09:22:51;;;;;;;32.17;21.05;;;11.90;92.10;;;;;;4965213;28;20045;-70
2023/02/22 09:25:19;;;;;;;27.70;20.27;;;12.10;91.80;;;;;;4943904;28;20046;-71
2023/02/22 09:27:49;;;;;;;35.95;20.85;;;12.10;91.60;;;;;;4944818;29;20044;-71
2023/02/22 09:30:33;;;;;;;31.85;20.42;;;12.40;91.10;;;;;;4955178;28;20042;-71
2023/02/22 09:33:08;;;;;;;37.47;23.27;;;12.50;90.60;;;;;;4953330;28;20149;-71
2023/02/22 09:35:40;;;;;;;46.80;28.30;;;12.70;91.40;;;;;;4963919;28;20050;-72
2023/02/22 09:38:10;;;;;;;39.63;25.20;;;13.20;90.80;;;;;;4946114;29;20123;-70
2023/02/22 09:40:52;;;;;;;31.27;19.73;;;13.40;88.80;;;;;;4971212;28;20051;-71
2023/02/22 09:43:43;;;;;;;36.42;19.98;;;13.20;87.10;;;;;;4955712;28;20043;-71
2023/02/22 09:46:33;;;;;;;31.48;18.80;;;13.20;86.90;;;;;;4956263;28;20403;-72
2023/02/22 09:49:06;;;;;;;31.92;18.63;;;13.40;86.20;;;;;;4961709;28;20367;-72
2023/02/22 09:51:51;;;;;;;29.38;17.88;;;13.70;85.20;;;;;;4941588;28;20389;-71
2023/02/22 09:54:33;;;;;;;24.27;17.25;;;14.00;83.90;;;;;;4973275;28;20050;-72
2023/02/22 09:57:07;;;;;;;27.63;17.08;;;14.20;83.00;;;;;;4931797;28;20049;-69
2023/02/22 09:59:41;;;;;;;26.52;16.67;;;14.50;81.40;;;;;;4955273;28;20065;-72
2023/02/22 10:02:37;;;;;;;29.92;16.58;;;14.70;80.70;;;;;;4930927;29;20051;-71
2023/02/22 10:05:12;;;;;;;26.17;15.95;;;14.80;80.00;;;;;;4937048;28;20109;-71
2023/02/22 10:07:58;;;;;;;27.48;16.42;;;15.00;79.00;;;;;;4942932;28;20451;-71
2023/02/22 10:10:32;;;;;;;28.10;15.45;;;15.10;77.40;;;;;;4940768;29;20054;-70
2023/02/22 10:13:18;;;;;;;25.77;14.10;;;15.10;75.80;;;;;;4936376;29;20137;-71
2023/02/22 10:15:50;;;;;;;26.55;14.82;;;15.20;76.80;;;;;;4953400;28;20046;-70
2023/02/22 10:18:58;;;;;;;29.33;14.95;;;15.50;78.10;;;;;;4936541;28;20391;-70
2023/02/22 10:21:26;;;;;;;24.20;14.90;;;15.90;76.60;;;;;;4929437;29;20122;-72
2023/02/22 10:24:25;;;;;;;24.35;14.07;;;16.10;75.70;;;;;;4917275;29;20051;-71
2023/02/22 10:26:54;;;;;;;27.23;14.05;;;16.30;71.40;;;;;;4915904;29;20050;-72
2023/02/22 10:29:41;;;;;;;44.70;16.13;;;16.30;72.70;;;;;;4924557;28;20051;-70
2023/02/22 10:32:22;;;;;;;22.50;14.43;;;16.60;75.20;;;;;;4950408;28;20121;-70
2023/02/22 10:34:53;;;;;;;28.50;14.02;;;16.80;71.80;;;;;;4951297;29;20039;-70
2023/02/22 10:37:27;;;;;;;21.27;13.00;;;17.10;73.50;;;;;;4966145;28;20039;-71
2023/02/22 10:40:10;;;;;;;24.42;14.00;;;17.70;74.60;;;;;;4958667;28;20054;-70
2023/02/22 10:42:38;;;;;;;19.65;12.63;;;18.10;70.50;;;;;;4955066;28;20414;-72
2023/02/22 10:45:15;;;;;;;24.30;13.20;;;18.20;70.50;;;;;;4949933;28;20494;-71
2023/02/22 10:47:42;;;;;;;19.80;12.30;;;18.50;68.70;;;;;;4971073;28;20046;-73
2023/02/22 10:50:13;;;;;;;24.50;15.02;;;18.90;67.30;;;;;;4971683;28;20035;-73
2023/02/22 10:52:40;;;;;;;18.52;13.00;;;18.80;67.30;;;;;;4972473;28;20096;-73
2023/02/22 10:55:13;;;;;;;22.23;13.80;;;18.80;63.90;;;;;;4969976;28;20475;-70
2023/02/22 10:57:46;;;;;;;20.00;12.73;;;18.90;64.80;;;;;;4972003;28;20047;-73
2023/02/22 11:00:25;;;;;;;22.20;12.80;;;18.70;64.00;;;;;;4959936;28;20039;-71
2023/02/22 11:03:00;;;;;;;20.25;11.65;;;18.70;61.60;;;;;;4958928;28;20089;-72
2023/02/22 11:05:46;;;;;;;18.58;10.60;;;18.90;62.60;;;;;;4954893;28;20046;-72
2023/02/22 11:08:22;;;;;;;22.92;11.32;;;19.10;60.80;;;;;;4954780;28;20050;-73
2023/02/22 11:11:02;;;;;;;36.85;11.50;;;19.20;61.00;;;;;;4971649;28;20045;-72
2023/02/22 11:13:38;;;;;;;19.80;10.20;;;21.40;56.10;;;;;;4954412;28;20050;-73
2023/02/22 11:16:30;;;;;;;12.77;9.43;;;24.40;49.70;;;;;;4972078;28;20039;-73
2023/02/22 11:19:00;;;;;;;16.23;9.55;;;25.80;45.80;;;;;;4971831;28;20105;-71
2023/02/22 11:21:31;;;;;;;15.63;10.15;;;26.30;44.70;;;;;;4954481;28;20400;-71
2023/02/22 11:24:07;;;;;;;12.57;9.23;;;27.00;44.70;;;;;;4959795;28;20039;-72
2023/02/22 11:26:47;;;;;;;10.65;6.88;;;27.50;42.90;;;;;;4953920;28;20045;-69
2023/02/22 11:29:31;;;;;;;9.60;6.47;;;26.80;41.70;;;;;;4951721;28;20149;-70
2023/02/22 11:32:23;;;;;;;9.98;5.90;;;27.00;41.20;;;;;;4970436;28;20463;-72
2023/02/22 11:34:51;;;;;;;9.88;5.90;;;27.80;40.30;;;;;;4970262;28;20130;-71
2023/02/22 11:37:38;;;;;;;12.70;5.97;;;26.80;41.10;;;;;;4958413;28;20043;-73
2023/02/22 11:40:05;;;;;;;10.93;6.07;;;24.20;44.10;;;;;;4975228;28;20506;-72
2023/02/22 11:42:32;;;;;;;9.02;5.75;;;23.10;46.60;;;;;;4958612;28;20509;-72
2023/02/22 11:45:20;;;;;;;9.88;5.90;;;23.20;46.60;;;;;;4974939;28;20134;-72
2023/02/22 11:47:59;;;;;;;11.45;6.60;;;22.60;47.90;;;;;;4958938;28;20121;-71
2023/02/22 11:50:30;;;;;;;14.40;10.02;;;22.30;48.10;;;;;;4958271;28;20065;-71
2023/02/22 11:53:43;;;;;;;13.88;9.00;;;22.50;48.40;;;;;;4957860;28;20042;-72
2023/02/22 11:56:24;;;;;;;10.57;5.82;;;22.30;48.00;;;;;;4974739;28;20057;-72
2023/02/22 11:59:18;;;;;;;8.25;5.60;;;21.90;47.50;;;;;;4975166;28;20042;-72
2023/02/22 12:01:54;;;;;;;9.45;4.60;;;21.80;48.00;;;;;;4965490;28;20043;-69
2023/02/22 12:04:35;;;;;;;8.32;5.35;;;22.20;47.40;;;;;;4972591;28;20364;-70
2023/02/22 12:07:41;;;;;;;8.23;4.28;;;22.20;47.40;;;;;;4965342;28;20055;-71
2023/02/22 12:10:17;;;;;;;8.05;4.40;;;22.20;45.60;;;;;;4974163;28;20495;-71
2023/02/22 12:12:54;;;;;;;7.53;4.32;;;22.10;46.80;;;;;;4966024;28;20409;-73
2023/02/22 12:15:31;;;;;;;6.10;3.60;;;22.40;46.30;;;;;;4956352;28;20058;-74
2023/02/22 12:18:04;;;;;;;9.77;5.50;;;22.70;46.60;;;;;;4947022;29;20521;-72
2023/02/22 12:21:00;;;;;;;8.18;4.95;;;22.80;46.10;;;;;;4973900;28;20042;-73
2023/02/22 12:23:49;;;;;;;9.52;5.13;;;22.70;46.40;;;;;;4964936;28;20059;-72
2023/02/22 12:26:25;;;;;;;9.65;5.15;;;23.00;46.70;;;;;;4949899;28;20039;-71
2023/02/22 12:28:58;;;;;;;9.27;5.00;;;25.30;45.20;;;;;;4968489;28;20054;-68
2023/02/22 12:31:32;;;;;;;10.68;5.35;;;28.20;41.80;;;;;;4972977;28;20037;-70
2023/02/22 12:34:06;;;;;;;8.98;5.07;;;30.20;39.40;;;;;;4972922;28;20434;-70
2023/02/22 12:36:47;;;;;;;10.73;5.90;;;29.60;38.20;;;;;;4971850;28;20384;-70
2023/02/22 12:39:52;;;;;;;8.55;6.10;;;30.00;38.40;;;;;;4954839;28;20259;-71
2023/02/22 12:42:35;;;;;;;9.02;5.75;;;31.40;37.90;;;;;;4971484;28;20050;-68
2023/02/22 12:45:15;;;;;;;8.15;4.90;;;32.00;37.20;;;;;;4971300;28;20046;-70
2023/02/22 12:47:58;;;;;;;12.00;5.47;;;31.90;36.40;;;;;;4970989;28;20039;-70
2023/02/22 12:50:28;;;;;;;7.93;4.78;;;31.50;36.40;;;;;;4954256;28;20098;-70
2023/02/22 12:52:59;;;;;;;8.45;4.90;;;31.60;36.50;;;;;;4972742;28;20081;-68
2023/02/22 12:55:34;;;;;;;8.05;5.28;;;31.90;36.40;;;;;;4953829;28;20142;-68
2023/02/22 12:58:12;;;;;;;8.38;4.72;;;31.30;36.60;;;;;;4970985;28;20035;-69
2023/02/22 13:00:53;;;;;;;9.38;5.63;;;32.00;36.40;;;;;;4971285;28;20062;-70
2023/02/22 13:03:41;;;;;;;9.70;5.13;;;33.00;36.10;;;;;;4973072;28;20030;-69
2023/02/22 13:06:32;;;;;;;8.20;5.43;;;32.80;36.20;;;;;;4952776;28;20486;-71
2023/02/22 13:09:23;;;;;;;8.75;5.55;;;32.90;36.20;;;;;;4951537;28;20046;-70
2023/02/22 13:12:08;;;;;;;11.25;6.63;;;32.60;36.20;;;;;;4955384;28;20046;-71
2023/02/22 13:14:43;;;;;;;10.35;5.25;;;32.60;36.40;;;;;;4973299;28;20038;-69
2023/02/22 13:17:26;;;;;;;9.00;5.15;;;33.00;35.70;;;;;;4973430;28;20050;-71
2023/02/22 13:20:19;;;;;;;10.60;5.22;;;33.20;35.40;;;;;;4971209;28;20049;-70
2023/02/22 13:22:58;;;;;;;7.60;4.65;;;31.50;35.40;;;;;;4955732;28;20134;-71
2023/02/22 13:25:47;;;;;;;;;;;31.50;35.70;;;;;;4973383;28;20039;-70
2023/02/22 13:28:28;;;;;;;8.10;4.45;;;32.10;35.30;;;;;;4969188;28;19933;-71